Latest Weather Observations for Bombala AWS

IDN60801

Issued at 2:32 pm EST Wednesday 26 July 2017 (issued every 30 minutes, with the page automatically refreshed every 10 minutes)

About weather observations | Map of weather stations | Latest weather observations for NSW | Other Formats
Station Details ID: 070328 Name: BOMBALA AWS Lat: -37.00 Lon: 149.23 Height: 760.5 m
Data from the previous 72 hours. | See also: Recent months at Bombala AWS
Date/Time
EST
Temp
°C
App
Temp
°C
Dew
Point
°C
Rel
Hum
%
Delta-T
°C
Wind Press
QNH
hPa
Press
MSL
hPa
Rain since
9am
mm
Dir  Spd
km/h
Gust
km/h
Spd
kts
Gust
kts
26/02:30pm 7.9 0.7 2.8 70 2.3 SSW 30 54 16 29 1014.1 1015.3 0.0
26/02:29pm 8.3 1.4 2.5 67 2.6 SSW 28 50 15 27 1014.0 1015.2 0.0
26/02:00pm 10.3 3.0 2.2 57 3.6 WSW 30 37 16 20 1013.2 1014.4 0.0
26/01:46pm 10.3 1.5 1.2 53 4.0 WSW 37 56 20 30 1013.2 1014.4 0.0
26/01:30pm 11.0 1.5 -0.8 44 4.9 WSW 39 54 21 29 1012.7 1013.8 0.0
26/01:14pm 12.2 2.6 0.9 46 5.0 W 41 59 22 32 1012.8 1013.9 0.0
26/01:00pm 10.8 1.3 -0.6 45 4.8 W 39 56 21 30 1012.4 1013.6 0.0
26/12:48pm 11.6 1.5 0.1 45 4.9 W 43 61 23 33 1012.4 1013.6 0.0
26/12:30pm 10.9 0.7 -0.2 46 4.7 W 43 61 23 33 1012.8 1013.9 0.0
26/12:21pm 11.8 2.2 0.9 47 4.8 W 41 61 22 33 1013.0 1014.2 0.0
26/12:00pm 10.7 2.0 -0.4 46 4.7 W 35 48 19 26 1013.2 1014.4 0.0
26/11:30am 11.3 1.2 0.4 47 4.7 W 43 57 23 31 1013.2 1014.4 0.0
26/11:00am 10.7 0.9 -0.1 47 4.6 W 41 52 22 28 1013.1 1014.3 0.0
26/10:30am 10.8 2.8 0.5 49 4.4 W 32 46 17 25 1013.4 1014.6 0.0
26/10:00am 10.3 2.1 0.3 50 4.3 WNW 33 43 18 23 1013.1 1014.3 0.0
26/09:30am 9.7 2.0 0.1 51 4.0 WNW 30 41 16 22 1013.1 1014.3 0.0
26/09:00am 9.0 1.3 -0.1 53 3.8 NW 30 41 16 22 1012.9 1014.1 0.0
26/08:30am 8.4 2.3 0.4 57 3.4 NW 22 32 12 17 1012.8 1013.9 0.0
26/08:00am 6.5 1.8 0.8 67 2.4 NW 15 20 8 11 1013.0 1014.2 0.0
26/07:30am 5.6 2.0 0.4 69 2.1 NNW 9 15 5 8 1012.7 1013.8 0.0
26/07:00am 4.9 2.3 0.7 74 1.7 NE 4 7 2 4 1012.4 1013.6 0.0
26/06:30am 6.6 2.3 1.1 68 2.3 NW 13 19 7 10 1011.9 1013.1 0.0
26/06:00am 6.3 0.0 1.4 71 2.1 NW 24 30 13 16 1011.2 1012.3 0.0
26/05:30am 6.0 -1.4 2.1 76 1.7 NW 30 35 16 19 1010.8 1012.0 0.0
26/05:00am 6.7 -0.2 2.8 76 1.7 NW 28 33 15 18 1010.8 1012.0 0.0
26/04:30am 5.2 -0.9 2.7 84 1.1 NW 24 28 13 15 1011.0 1012.2 0.0
26/04:00am 5.3 -0.1 2.7 83 1.1 NW 20 24 11 13 1011.3 1012.4 0.0
26/03:30am 6.8 0.8 3.4 79 1.5 NW 24 30 13 16 1011.3 1012.4 0.0
26/03:00am 6.3 -0.7 4.0 85 1.0 NW 30 33 16 18 1011.3 1012.4 0.0
26/02:30am 6.9 0.2 3.7 80 1.4 NW 28 33 15 18 1011.6 1012.7 0.0
26/02:00am 7.5 0.8 3.9 78 1.6 NW 28 35 15 19 1011.7 1012.8 0.0
26/01:30am 7.8 2.7 4.0 77 1.7 NW 20 30 11 16 1012.1 1013.3 0.0
26/01:00am 7.3 3.1 3.7 78 1.6 NW 15 20 8 11 1012.6 1013.7 0.0
26/12:30am 8.5 3.4 3.9 73 2.1 NW 20 30 11 16 1012.8 1013.9 0.0
26/12:00am 9.4 3.5 3.8 68 2.6 WNW 24 33 13 18 1013.0 1014.2 0.0
 
Date/Time
EST
Temp
°C
App
Temp
°C
Dew
Point
°C
Rel
Hum
%
Delta-T
°C
Wind Press
QNH
hPa
Press
MSL
hPa
Rain since
9am
mm
Dir  Spd
km/h
Gust
km/h
Spd
kts
Gust
kts
25/11:30pm 9.8 3.5 3.5 65 2.9 WNW 26 37 14 20 1013.3 1014.5 0.0
25/11:00pm 10.3 3.5 3.3 62 3.2 WNW 28 39 15 21 1013.1 1014.3 0.0
25/10:30pm 10.5 2.9 3.1 60 3.4 WNW 32 43 17 23 1013.1 1014.3 0.0
25/10:18pm 10.4 4.0 3.2 61 3.3 NW 26 39 14 21 1013.2 1014.4 0.0
25/10:00pm 7.2 3.8 2.1 70 2.2 WNW 9 15 5 8 1013.5 1014.7 0.0
25/09:30pm 6.6 3.5 1.3 69 2.2 NW 7 11 4 6 1013.4 1014.6 0.0
25/09:00pm 6.9 4.3 1.0 66 2.5 NNW 4 11 2 6 1013.4 1014.6 0.0
25/08:30pm 7.9 4.8 1.1 62 2.9 N 7 11 4 6 1013.4 1014.6 0.0
25/08:00pm 8.2 4.8 1.6 63 2.8 NNW 9 13 5 7 1014.0 1015.2 0.0
25/07:30pm 10.4 4.2 2.3 57 3.6 NW 24 30 13 16 1014.5 1015.7 0.0
25/07:00pm 9.3 3.0 1.7 59 3.3 WNW 24 32 13 17 1014.1 1015.3 0.0
25/06:30pm 9.9 3.3 2.0 58 3.5 WNW 26 33 14 18 1014.4 1015.6 0.0
25/06:00pm 10.5 2.8 2.1 56 3.7 NW 32 41 17 22 1014.1 1015.3 0.0
25/05:30pm 10.8 2.5 2.1 55 3.9 NW 35 46 19 25 1013.7 1014.9 0.0
25/05:00pm 11.3 2.6 2.1 53 4.1 NW 37 50 20 27 1013.7 1014.9 0.0
25/04:30pm 12.0 3.8 2.7 53 4.2 WNW 35 54 19 29 1014.4 1015.6 0.0
25/04:01pm 12.4 4.1 2.3 50 4.6 WNW 35 54 19 29 1014.6 1015.8 0.0
25/04:00pm 12.5 4.6 2.4 50 4.6 WNW 33 52 18 28 1014.6 1015.8 0.0
25/03:30pm 13.3 7.2 2.5 48 5.0 NW 24 39 13 21 1014.8 1016.0 0.0
25/03:00pm 13.6 6.7 2.8 48 5.0 WNW 28 41 15 22 1015.1 1016.4 0.0
25/02:42pm 13.6 6.6 2.2 46 5.2 NW 28 48 15 26 1015.4 1016.6 0.0
25/02:30pm 13.4 6.1 2.3 47 5.1 WNW 30 46 16 25 1015.7 1016.9 0.0
25/02:01pm 13.6 5.9 2.2 46 5.2 NW 32 52 17 28 1016.1 1017.3 0.0
25/02:00pm 14.0 6.3 3.2 48 5.1 NW 33 52 18 28 1016.1 1017.3 0.0
25/01:30pm 13.6 6.3 2.5 47 5.1 NW 30 44 16 24 1016.3 1017.6 0.0
25/01:00pm 13.4 6.6 3.2 50 4.8 NW 28 37 15 20 1017.1 1018.3 0.0
25/12:30pm 12.9 5.3 2.7 50 4.7 WNW 32 46 17 25 1017.7 1019.0 0.0
25/12:00pm 12.3 6.3 3.5 55 4.1 NW 24 32 13 17 1018.4 1019.6 0.0
25/11:30am 10.9 3.6 2.2 55 3.9 NW 30 39 16 21 1018.7 1020.0 0.0
25/11:00am 10.8 4.7 2.9 58 3.6 NW 24 35 13 19 1019.0 1020.3 0.0
25/10:30am 9.7 3.1 2.3 60 3.3 NW 26 33 14 18 1019.2 1020.5 0.0
25/10:00am 7.6 2.1 2.1 68 2.4 NNW 20 28 11 15 1019.3 1020.6 0.0
25/09:30am 5.7 0.7 1.4 74 1.8 NNW 17 22 9 12 1019.8 1021.1 0.0
25/09:00am 3.9 -1.8 0.6 79 1.3 NNW 20 24 11 13 1019.7 1021.0 0.0
25/08:30am 1.8 -2.7 -0.4 85 0.8 NW 13 17 7 9 1019.6 1020.9 0.0
25/08:00am 0.9 -2.5 -1.7 83 1.0 N 6 7 3 4 1019.3 1020.6 0.0
25/07:30am 0.3 -3.1 -1.9 85 0.8 NNW 6 6 3 3 1019.3 1020.6 0.0
25/07:00am 0.4 -3.5 -1.3 88 0.6 NNW 9 11 5 6 1019.1 1020.4 0.0
25/06:30am -0.1 -3.5 -1.8 88 0.6 NNW 6 7 3 4 1019.0 1020.3 0.0
25/06:00am -0.9 -4.3 -2.2 91 0.4 N 6 7 3 4 1019.1 1020.4 0.0
25/05:30am -0.7 -4.7 -2.0 91 0.4 NW 9 11 5 6 1019.0 1020.3 0.0
25/05:00am 0.2 -3.4 -1.9 86 0.8 N 7 11 4 6 1018.8 1020.1 0.0
25/04:30am 0.7 -2.8 -1.2 87 0.7 NW 7 9 4 5 1018.7 1020.0 0.0
25/04:00am 1.6 -2.1 -0.3 87 0.7 NW 9 13 5 7 1018.8 1020.1 0.0
25/03:30am -0.2 -3.6 -1.9 88 0.6 NNW 6 9 3 5 1018.7 1020.0 0.0
25/03:00am -0.4 -3.8 -1.8 90 0.5 N 6 7 3 4 1019.1 1020.4 0.0
25/02:30am -0.4 -3.4 -1.8 90 0.5 N 4 9 2 5 1018.9 1020.2 0.0
25/02:00am 0.0 -2.2 -1.6 89 0.6 CALM 0 2 0 1 1019.0 1020.3 0.0
25/01:30am 1.2 -2.1 -1.0 85 0.8 N 6 7 3 4 1019.0 1020.3 0.0
25/01:00am 3.1 1.2 0.3 82 1.1 CALM 0 2 0 1 1019.2 1020.5 0.0
25/12:30am 2.6 0.2 -0.5 80 1.2 WNW 2 4 1 2 1019.6 1020.9 0.0
25/12:00am 2.6 0.6 0.0 83 1.0 CALM 0 2 0 1 1019.7 1021.0 0.0
 
Date/Time
EST
Temp
°C
App
Temp
°C
Dew
Point
°C
Rel
Hum
%
Delta-T
°C
Wind Press
QNH
hPa
Press
MSL
hPa
Rain since
9am
mm
Dir  Spd
km/h
Gust
km/h
Spd
kts
Gust
kts
24/11:30pm 1.7 -2.2 -1.2 81 1.1 NW 9 11 5 6 1019.7 1021.0 0.0
24/11:00pm 2.8 -1.3 -0.3 80 1.2 WNW 11 11 6 6 1019.7 1021.0 0.0
24/10:30pm 2.2 -1.6 -1.1 79 1.2 NW 9 11 5 6 1019.4 1020.7 0.0
24/10:00pm 2.6 -0.3 -0.8 78 1.3 NNW 4 7 2 4 1019.3 1020.6 0.0
24/09:30pm 2.8 -2.2 -1.0 76 1.4 NW 15 17 8 9 1019.3 1020.6 0.0
24/09:00pm 4.6 -0.6 0.2 73 1.8 NW 17 19 9 10 1019.1 1020.4 0.0
24/08:30pm 3.6 -1.8 -1.2 71 1.8 WNW 17 19 9 10 1019.0 1020.3 0.0
24/08:00pm 6.1 0.4 -0.4 63 2.6 NW 19 24 10 13 1019.0 1020.3 0.0
24/07:30pm 6.0 0.7 -0.7 62 2.7 NW 17 20 9 11 1019.0 1020.3 0.0
24/07:00pm 5.9 0.6 -0.8 62 2.6 NW 17 20 9 11 1018.8 1020.1 0.0
24/06:30pm 6.9 1.6 -0.5 59 3.0 NW 17 22 9 12 1018.6 1019.9 0.0
24/06:00pm 7.7 2.4 -0.5 56 3.3 NW 17 20 9 11 1018.3 1019.5 0.0
24/05:30pm 7.9 2.2 -0.6 55 3.5 WNW 19 24 10 13 1017.9 1019.2 0.0
24/05:00pm 8.6 2.7 -0.7 52 3.8 W 20 28 11 15 1017.7 1019.0 0.0
24/04:30pm 10.2 4.0 -0.6 47 4.5 W 22 30 12 16 1017.4 1018.7 0.0
24/04:00pm 10.9 3.8 -1.2 43 5.0 W 26 32 14 17 1017.2 1018.4 0.0
24/03:30pm 11.4 5.6 -0.4 44 5.0 W 20 28 11 15 1017.0 1018.2 0.0
24/03:00pm 10.7 6.1 -0.7 45 4.8 W 13 22 7 12 1016.6 1017.9 0.0
24/02:30pm 11.9 6.4 0.4 45 5.0 W 19 24 10 13 1016.5 1017.8 0.0
24/02:00pm 10.6 6.2 0.1 48 4.5 W 13 17 7 9 1016.4 1017.7 0.0
24/01:30pm 11.3 5.8 0.4 47 4.7 W 19 24 10 13 1016.5 1017.8 0.0
24/01:00pm 11.3 4.4 0.1 46 4.8 W 26 33 14 18 1016.6 1017.9 0.0
24/12:30pm 10.9 3.3 0.6 49 4.4 W 30 37 16 20 1017.0 1018.2 0.0
24/12:00pm 10.6 2.7 0.9 51 4.2 W 32 43 17 23 1017.3 1018.6 0.0
24/11:30am 10.0 1.9 0.9 53 3.9 W 33 43 18 23 1017.8 1019.1 0.0
24/11:00am 9.7 1.9 1.6 57 3.5 WSW 32 43 17 23 1017.9 1019.2 0.0
24/10:30am 8.8 1.8 2.2 63 2.9 W 28 39 15 21 1017.8 1019.1 0.0
24/10:00am 7.2 1.7 2.1 70 2.2 W 20 32 11 17 1017.9 1019.2 0.0
24/09:30am 6.5 5.0 2.8 77 1.6 CALM 0 4 0 2 1017.9 1019.2 0.0
24/09:00am 4.9 2.0 1.4 78 1.4 NE 6 7 3 4 1017.7 1019.0 0.0
24/08:30am 4.8 2.6 0.9 76 1.6 SW 2 2 1 1 1017.4 1018.7 0.0
24/08:00am 4.1 2.2 0.8 79 1.3 CALM 0 0 0 0 1017.1 1018.3 0.0
24/07:30am 2.3 0.3 0.0 85 0.9 CALM 0 0 0 0 1016.5 1017.8 0.0
24/07:00am 2.2 -1.0 -0.2 84 0.9 W 6 7 3 4 1016.2 1017.5 0.0
24/06:30am 2.7 -2.5 0.4 85 0.9 NW 17 20 9 11 1015.8 1017.0 0.0
24/06:00am 2.5 -2.7 0.4 86 0.8 NNW 17 19 9 10 1015.6 1016.8 0.0
24/05:30am 2.0 -2.4 0.2 88 0.7 NNW 13 15 7 8 1015.1 1016.4 0.0
24/05:00am 1.7 -2.3 0.4 91 0.5 NNW 11 13 6 7 1014.9 1016.1 0.0
24/04:30am 2.0 -2.4 0.5 90 0.6 NNW 13 15 7 8 1014.7 1015.9 0.0
24/04:00am 2.7 -1.2 0.9 88 0.7 N 11 13 6 7 1014.4 1015.6 0.0
24/03:30am 3.8 -0.4 1.4 84 1.0 N 13 13 7 7 1014.5 1015.7 0.0
24/03:00am 3.3 0.1 0.7 83 1.0 NW 7 17 4 9 1014.3 1015.5 0.0
24/02:30am 2.2 -1.4 0.3 87 0.7 NW 9 11 5 6 1014.4 1015.6 0.0
24/02:00am 2.2 -1.4 0.4 88 0.7 NW 9 11 5 6 1014.4 1015.6 0.0
24/01:30am 3.2 -1.2 0.3 81 1.1 WNW 13 15 7 8 1014.3 1015.5 0.0
24/01:00am 3.1 -1.2 1.0 86 0.8 WNW 13 15 7 8 1014.1 1015.3 0.0
24/12:30am 3.0 -0.7 0.2 82 1.1 WNW 9 13 5 7 1014.1 1015.3 0.0
24/12:00am 5.0 0.4 1.7 79 1.4 NW 15 20 8 11 1014.0 1015.2 0.0
 
Date/Time
EST
Temp
°C
App
Temp
°C
Dew
Point
°C
Rel
Hum
%
Delta-T
°C
Wind Press
QNH
hPa
Press
MSL
hPa
Rain since
9am
mm
Dir  Spd
km/h
Gust
km/h
Spd
kts
Gust
kts
23/11:30pm 5.6 0.7 1.9 77 1.6 NW 17 24 9 13 1013.7 1014.9 0.0
23/11:00pm 5.5 0.0 2.0 78 1.5 WNW 20 24 11 13 1013.5 1014.7 0.0
23/10:30pm 6.1 -0.1 2.2 76 1.7 WNW 24 32 13 17 1013.3 1014.5 0.0
23/10:00pm 7.5 -0.4 2.4 70 2.2 W 33 41 18 22 1013.2 1014.4 0.0
23/09:30pm 7.3 0.7 2.0 69 2.3 WNW 26 32 14 17 1013.1 1014.3 0.0
23/09:00pm 7.0 1.0 1.3 67 2.4 WNW 22 32 12 17 1013.1 1014.3 0.0
23/08:30pm 7.2 0.9 1.3 66 2.5 WNW 24 32 13 17 1012.9 1014.1 0.0
23/08:00pm 7.4 -0.1 1.0 64 2.7 NW 30 37 16 20 1012.4 1013.6 0.0
23/07:30pm 7.5 0.7 0.9 63 2.8 NW 26 37 14 20 1012.4 1013.6 0.0
23/07:00pm 7.3 1.2 0.7 63 2.8 NW 22 30 12 16 1012.2 1013.4 0.0
23/06:30pm 7.3 1.8 0.5 62 2.8 NW 19 24 10 13 1011.9 1013.1 0.0
23/06:00pm 7.6 1.9 0.8 62 2.9 NW 20 26 11 14 1011.5 1012.6 0.0
23/05:30pm 8.6 3.5 0.6 57 3.4 NW 17 24 9 13 1011.2 1012.3 0.0
23/05:00pm 9.7 3.6 0.6 53 3.9 WNW 22 33 12 18 1010.5 1011.6 0.0
23/04:30pm 10.7 4.3 0.7 50 4.3 NW 24 35 13 19 1010.1 1011.2 0.0
23/04:14pm 11.4 3.4 0.5 47 4.7 WNW 32 52 17 28 1010.1 1011.2 0.0
23/04:00pm 11.7 2.3 0.2 45 5.0 WNW 39 52 21 28 1009.9 1011.0 0.0
23/03:30pm 12.1 2.4 0.5 45 5.0 WNW 41 63 22 34 1009.6 1010.8 0.0
23/03:00pm 12.4 2.7 0.5 44 5.2 WNW 41 61 22 33 1009.2 1010.3 0.0
23/02:34pm 12.7 2.7 1.1 45 5.1 WNW 43 63 23 34 1009.3 1010.4 0.0

Other Formats:

Comma delimited format used in spreadsheet applications
http://www.bom.gov.au/fwo/IDN60801/IDN60801.94929.axf

JavaScript Object Notation format (JSON) in row-major order
http://www.bom.gov.au/fwo/IDN60801/IDN60801.94929.json